Terminal Aerodrome Forecast
Issued by NWS

Home | Current Version | Previous Version | Text Only | Print | Product List | Glossary On
Versions: 1 2 3 4 5 6 7 8 9 10 11 12 13 14
000
FTUS44 KEPZ 230500
TAFLRU
TAF
KLRU 230520Z 2306/2406 28015KT P6SM SCT250
     FM230800 32010G20KT P6SM FEW080 SCT250
     FM231600 02012KT P6SM SCT080
     FM240200 04007KT P6SM FEW080=

USA.gov is the U.S. government's official web portal to all federal, state and local government web resources and services.